createdAt,value
2022-12-06T00:00:24.660Z,9.13
2022-12-06T00:02:52.775Z,11.90
2022-12-06T00:05:20.946Z,10.80
2022-12-06T00:07:50.141Z,11.50
2022-12-06T00:10:17.927Z,10.83
2022-12-06T00:12:45.602Z,9.30
2022-12-06T00:15:13.567Z,8.30
2022-12-06T00:17:43.281Z,8.17
2022-12-06T00:20:13.038Z,7.30
2022-12-06T00:22:45.115Z,7.07
2022-12-06T00:25:12.844Z,7.90
2022-12-06T00:27:40.575Z,7.17
2022-12-06T00:30:09.594Z,7.07
2022-12-06T00:32:37.533Z,6.33
2022-12-06T00:35:07.444Z,7.30
2022-12-06T00:37:35.180Z,6.63
2022-12-06T00:40:02.978Z,5.87
2022-12-06T00:42:31.599Z,6.83
2022-12-06T00:44:59.937Z,5.80
2022-12-06T00:47:27.786Z,6.20
2022-12-06T00:49:55.733Z,5.53
2022-12-06T00:52:25.395Z,5.80
2022-12-06T00:54:53.568Z,5.97
2022-12-06T00:57:21.646Z,5.40
2022-12-06T00:59:49.760Z,5.27
2022-12-06T01:02:17.761Z,5.40
2022-12-06T01:04:45.506Z,5.73
2022-12-06T01:07:13.379Z,6.07
2022-12-06T01:09:42.576Z,5.20
2022-12-06T01:12:10.518Z,6.13
2022-12-06T01:14:38.369Z,5.87
2022-12-06T01:17:06.482Z,6.87
2022-12-06T01:19:34.535Z,6.10
2022-12-06T01:22:02.444Z,5.80
2022-12-06T01:24:30.532Z,6.03
2022-12-06T01:26:59.715Z,6.40
2022-12-06T01:29:27.882Z,6.27
2022-12-06T01:31:55.944Z,6.40
2022-12-06T01:34:24.040Z,5.87
2022-12-06T01:36:52.039Z,6.27
2022-12-06T01:39:20.697Z,5.27
2022-12-06T01:41:49.396Z,5.67
2022-12-06T01:44:36.232Z,6.57
2022-12-06T01:47:06.602Z,7.63
2022-12-06T01:49:36.068Z,7.63
2022-12-06T01:52:06.885Z,7.40
2022-12-06T01:54:37.281Z,6.83
2022-12-06T01:57:06.958Z,6.53
2022-12-06T01:59:34.807Z,6.80
2022-12-06T02:02:02.891Z,6.53
2022-12-06T02:04:33.441Z,6.33
2022-12-06T02:07:02.230Z,6.73
2022-12-06T02:09:30.719Z,5.67
2022-12-06T02:11:58.809Z,5.20
2022-12-06T02:14:28.871Z,6.00
2022-12-06T02:17:04.289Z,5.57
2022-12-06T02:19:44.382Z,5.47
2022-12-06T02:22:14.900Z,5.23
2022-12-06T02:25:06.906Z,4.83
2022-12-06T02:27:51.025Z,4.87
2022-12-06T02:30:30.493Z,4.60
2022-12-06T02:33:00.352Z,4.90
2022-12-06T02:35:31.952Z,4.97
2022-12-06T02:38:07.689Z,4.57
2022-12-06T02:40:41.745Z,4.57
2022-12-06T02:43:14.333Z,4.57
2022-12-06T02:45:48.744Z,4.50
2022-12-06T02:48:17.507Z,5.53
2022-12-06T02:50:48.578Z,5.03
2022-12-06T02:53:21.384Z,4.63
2022-12-06T02:55:51.364Z,5.83
2022-12-06T02:58:19.508Z,4.40
2022-12-06T03:00:51.285Z,5.40
2022-12-06T03:03:25.779Z,4.50
2022-12-06T03:06:04.939Z,4.97
2022-12-06T03:08:36.463Z,5.27
2022-12-06T03:11:05.072Z,4.67
2022-12-06T03:13:35.801Z,5.83
2022-12-06T03:16:08.673Z,7.53
2022-12-06T03:18:38.984Z,7.10
2022-12-06T03:21:08.672Z,6.80
2022-12-06T03:23:38.817Z,8.37
2022-12-06T03:26:08.133Z,7.80
2022-12-06T03:28:37.639Z,8.43
2022-12-06T03:31:09.048Z,9.20
2022-12-06T03:33:38.608Z,8.60
2022-12-06T03:36:09.987Z,9.53
2022-12-06T03:38:38.886Z,7.67
2022-12-06T03:41:07.745Z,5.63
2022-12-06T03:43:36.009Z,5.23
2022-12-06T03:46:08.811Z,6.07
2022-12-06T03:48:42.487Z,5.30
2022-12-06T03:51:12.611Z,6.67
2022-12-06T03:53:47.475Z,6.40
2022-12-06T03:56:15.605Z,7.07
2022-12-06T03:58:43.620Z,6.13
2022-12-06T04:01:12.251Z,6.90
2022-12-06T04:03:43.814Z,7.23
2022-12-06T04:06:12.131Z,8.00
2022-12-06T04:08:40.096Z,9.13
2022-12-06T04:11:10.102Z,8.00
2022-12-06T04:13:38.200Z,14.00
2022-12-06T04:16:27.266Z,11.73
2022-12-06T04:18:57.194Z,11.37
2022-12-06T04:21:42.657Z,13.83
2022-12-06T04:24:10.876Z,12.90
2022-12-06T04:26:39.104Z,12.67
2022-12-06T04:29:24.544Z,11.67
2022-12-06T04:32:09.850Z,9.33
2022-12-06T04:34:56.781Z,9.10
2022-12-06T04:37:42.256Z,7.70
2022-12-06T04:40:10.450Z,7.00
2022-12-06T04:42:56.035Z,6.93
2022-12-06T04:45:25.287Z,7.13
2022-12-06T04:47:53.971Z,7.83
2022-12-06T04:50:23.099Z,6.40
2022-12-06T04:52:50.833Z,6.97
2022-12-06T04:55:18.600Z,7.00
2022-12-06T04:57:46.370Z,7.27
2022-12-06T05:00:15.151Z,8.13
2022-12-06T05:02:43.011Z,9.23
2022-12-06T05:05:11.288Z,8.87
2022-12-06T05:07:41.059Z,9.57
2022-12-06T05:10:10.420Z,9.27
2022-12-06T05:12:38.392Z,7.93
2022-12-06T05:15:06.372Z,11.13
2022-12-06T05:17:34.088Z,10.27
2022-12-06T05:20:04.481Z,12.07
2022-12-06T05:22:34.112Z,17.23
2022-12-06T05:25:03.397Z,11.33
2022-12-06T05:27:35.818Z,9.17
2022-12-06T05:30:04.439Z,11.13
2022-12-06T05:32:32.443Z,6.47
2022-12-06T05:35:00.161Z,7.10
2022-12-06T05:37:28.894Z,8.73
2022-12-06T05:39:56.616Z,7.07
2022-12-06T05:42:26.703Z,8.00
2022-12-06T05:44:54.344Z,7.20
2022-12-06T05:47:22.206Z,9.23
2022-12-06T05:49:50.723Z,9.33
2022-12-06T05:52:20.889Z,9.50
2022-12-06T05:54:48.609Z,10.63
2022-12-06T05:57:16.325Z,7.83
2022-12-06T05:59:45.577Z,7.80
2022-12-06T06:02:16.380Z,8.97
2022-12-06T06:04:44.603Z,8.33
2022-12-06T06:07:13.155Z,8.73
2022-12-06T06:09:40.920Z,8.43
2022-12-06T06:12:12.509Z,9.07
2022-12-06T06:14:41.507Z,10.50
2022-12-06T06:17:10.624Z,10.80
2022-12-06T06:19:38.742Z,11.63
2022-12-06T06:22:11.542Z,11.20
2022-12-06T06:24:40.489Z,15.00
2022-12-06T06:27:08.342Z,14.87
2022-12-06T06:29:42.059Z,11.43
2022-12-06T06:32:14.679Z,11.63
2022-12-06T06:34:42.757Z,13.70
2022-12-06T06:37:11.051Z,11.57
2022-12-06T06:39:38.799Z,11.77
2022-12-06T06:42:07.185Z,12.17
2022-12-06T06:44:37.798Z,10.03
2022-12-06T06:47:06.208Z,9.93
2022-12-06T06:49:35.677Z,9.47
2022-12-06T06:52:03.680Z,8.50
2022-12-06T06:54:31.503Z,9.73
2022-12-06T06:56:59.330Z,9.83
2022-12-06T06:59:27.171Z,9.57
2022-12-06T07:01:55.403Z,11.97
2022-12-06T07:04:23.245Z,10.63
2022-12-06T07:06:52.733Z,10.33
2022-12-06T07:09:20.665Z,8.63
2022-12-06T07:11:48.679Z,8.17
2022-12-06T07:14:16.412Z,8.33
2022-12-06T07:16:44.371Z,9.90
2022-12-06T07:19:12.285Z,9.80
2022-12-06T07:21:40.642Z,9.60
2022-12-06T07:24:10.199Z,9.47
2022-12-06T07:26:38.112Z,9.73
2022-12-06T07:29:06.345Z,8.80
2022-12-06T07:31:34.348Z,9.27
2022-12-06T07:34:03.083Z,11.37
2022-12-06T07:36:31.871Z,7.07
2022-12-06T07:39:01.766Z,7.07
2022-12-06T07:41:48.592Z,6.83
2022-12-06T07:44:35.086Z,8.33
2022-12-06T07:47:03.526Z,6.10
2022-12-06T07:49:31.204Z,5.57
2022-12-06T07:51:59.381Z,5.97
2022-12-06T07:54:27.640Z,5.70
2022-12-06T07:56:57.702Z,6.23
2022-12-06T07:59:25.768Z,7.90
2022-12-06T08:01:58.014Z,5.07
2022-12-06T08:04:26.273Z,5.97
2022-12-06T08:06:54.345Z,6.73
2022-12-06T08:09:22.036Z,6.67
2022-12-06T08:11:49.768Z,5.47
2022-12-06T08:14:19.029Z,5.80
2022-12-06T08:16:46.992Z,5.90
2022-12-06T08:19:15.247Z,4.23
2022-12-06T08:21:44.255Z,5.80
2022-12-06T08:24:12.512Z,5.07
2022-12-06T08:26:40.764Z,5.40
2022-12-06T08:29:08.418Z,5.30
2022-12-06T08:31:38.049Z,4.87
2022-12-06T08:34:05.820Z,5.13
2022-12-06T08:36:34.346Z,5.20
2022-12-06T08:39:02.478Z,5.57
2022-12-06T08:41:48.398Z,5.53
2022-12-06T08:44:17.366Z,6.70
2022-12-06T08:46:47.002Z,8.33
2022-12-06T08:49:15.671Z,7.60
2022-12-06T08:51:43.821Z,6.73
2022-12-06T08:54:14.235Z,8.03
2022-12-06T08:56:42.331Z,6.77
2022-12-06T08:59:10.292Z,7.73
2022-12-06T09:01:41.103Z,6.03
2022-12-06T09:04:11.258Z,5.63
2022-12-06T09:06:40.293Z,7.73
2022-12-06T09:09:09.182Z,6.30
2022-12-06T09:11:37.201Z,6.73
2022-12-06T09:14:05.070Z,6.30
2022-12-06T09:16:32.797Z,5.50
2022-12-06T09:19:01.059Z,6.47
2022-12-06T09:21:30.743Z,6.07
2022-12-06T09:24:00.531Z,6.97
2022-12-06T09:26:29.145Z,7.70
2022-12-06T09:28:57.160Z,5.57
2022-12-06T09:31:25.821Z,6.20
2022-12-06T09:33:53.867Z,7.90
2022-12-06T09:36:23.876Z,5.97
2022-12-06T09:38:55.085Z,6.63
2022-12-06T09:41:34.115Z,7.57
2022-12-06T09:44:08.747Z,6.73
2022-12-06T09:46:43.236Z,6.10
2022-12-06T09:49:27.402Z,5.20
2022-12-06T09:52:03.129Z,5.27
2022-12-06T09:54:39.601Z,5.90
2022-12-06T09:57:09.109Z,4.60
2022-12-06T09:59:44.099Z,6.17
2022-12-06T10:02:24.163Z,6.77
2022-12-06T10:04:59.675Z,6.53
2022-12-06T10:07:32.406Z,6.20
2022-12-06T10:10:08.363Z,6.07
2022-12-06T10:12:45.094Z,6.27
2022-12-06T10:15:20.766Z,6.50
2022-12-06T10:17:55.439Z,6.47
2022-12-06T10:20:27.423Z,6.60
2022-12-06T10:22:59.684Z,8.97
2022-12-06T10:25:33.644Z,6.43
2022-12-06T10:28:04.089Z,5.57
2022-12-06T10:30:34.498Z,5.60
2022-12-06T10:33:06.651Z,6.50
2022-12-06T10:35:41.289Z,5.50
2022-12-06T10:38:15.405Z,6.07
2022-12-06T10:40:49.406Z,7.33
2022-12-06T10:43:19.280Z,5.90
2022-12-06T10:46:09.321Z,6.37
2022-12-06T10:48:39.956Z,6.63
2022-12-06T10:51:10.994Z,6.07
2022-12-06T10:53:41.965Z,6.60
2022-12-06T10:56:18.467Z,8.83
2022-12-06T10:58:48.385Z,6.17
2022-12-06T11:01:18.445Z,6.93
2022-12-06T11:03:57.361Z,8.10
2022-12-06T11:06:30.033Z,5.20
2022-12-06T11:08:58.720Z,6.97
2022-12-06T11:11:29.856Z,7.43
2022-12-06T11:14:01.389Z,5.90
2022-12-06T11:16:33.017Z,6.40
2022-12-06T11:19:04.231Z,6.97
2022-12-06T11:21:34.602Z,7.43
2022-12-06T11:24:04.721Z,7.40
2022-12-06T11:26:39.605Z,8.30
2022-12-06T11:29:11.710Z,8.20
2022-12-06T11:31:43.702Z,6.67
2022-12-06T11:34:15.758Z,7.17
2022-12-06T11:36:43.863Z,8.30
2022-12-06T11:39:13.032Z,7.53
2022-12-06T11:41:44.044Z,6.23
2022-12-06T11:44:14.709Z,6.10
2022-12-06T11:46:42.560Z,5.20
2022-12-06T11:49:16.283Z,4.87
2022-12-06T11:51:44.098Z,6.23
2022-12-06T11:54:20.622Z,7.60
2022-12-06T11:56:50.485Z,7.43
2022-12-06T11:59:29.333Z,7.13
2022-12-06T12:01:58.075Z,7.40
2022-12-06T12:04:35.721Z,6.93
2022-12-06T12:07:05.542Z,7.60
2022-12-06T12:09:36.995Z,6.93
2022-12-06T12:12:08.151Z,7.17
2022-12-06T12:14:40.819Z,7.03
2022-12-06T12:17:17.510Z,7.63
2022-12-06T12:19:47.296Z,7.77
2022-12-06T12:22:16.028Z,7.27
2022-12-06T12:25:18.651Z,8.23
2022-12-06T12:27:36.007Z,6.30
2022-12-06T12:30:26.691Z,7.20
2022-12-06T12:33:15.279Z,8.13
2022-12-06T12:35:44.314Z,6.13
2022-12-06T12:38:16.821Z,6.93
2022-12-06T12:40:47.362Z,7.80
2022-12-06T12:43:21.078Z,7.40
2022-12-06T12:46:06.806Z,8.30
2022-12-06T12:48:35.443Z,7.27
2022-12-06T12:51:04.783Z,7.67
2022-12-06T12:53:33.720Z,6.63
2022-12-06T12:56:07.321Z,6.30
2022-12-06T12:58:36.581Z,7.40
2022-12-06T13:01:07.688Z,7.53
2022-12-06T13:03:53.728Z,6.50
2022-12-06T13:06:27.797Z,7.10
2022-12-06T13:08:57.619Z,6.40
2022-12-06T13:11:25.977Z,7.40
2022-12-06T13:13:56.343Z,6.50
2022-12-06T13:16:28.329Z,4.27
2022-12-06T13:18:57.540Z,6.40
2022-12-06T13:21:26.799Z,7.83
2022-12-06T13:23:56.435Z,6.03
2022-12-06T13:26:26.691Z,7.87
2022-12-06T13:29:00.310Z,7.93
2022-12-06T13:31:31.519Z,5.67
2022-12-06T13:34:02.246Z,4.63
2022-12-06T13:36:33.112Z,7.30
2022-12-06T13:39:02.132Z,7.33
2022-12-06T13:41:59.053Z,6.57
2022-12-06T13:44:42.099Z,7.57
2022-12-06T13:47:28.985Z,6.53
2022-12-06T13:49:57.318Z,10.37
2022-12-06T13:52:40.388Z,9.27
2022-12-06T13:55:22.982Z,9.40
2022-12-06T13:57:51.544Z,11.30
2022-12-06T14:00:34.617Z,8.57
2022-12-06T14:03:05.241Z,8.87
2022-12-06T14:08:19.705Z,10.20
2022-12-06T14:10:47.477Z,9.00
2022-12-06T14:13:16.657Z,9.43
2022-12-06T14:15:47.492Z,10.50
2022-12-06T14:18:20.470Z,8.37
2022-12-06T14:20:49.479Z,9.40
2022-12-06T14:23:29.206Z,9.57
2022-12-06T14:26:18.932Z,9.10
2022-12-06T14:28:46.988Z,8.90
2022-12-06T14:31:19.184Z,8.73
2022-12-06T14:33:48.813Z,9.67
2022-12-06T14:36:22.712Z,8.37
2022-12-06T14:38:55.488Z,12.07
2022-12-06T14:41:46.903Z,9.27
2022-12-06T14:44:17.397Z,10.77
2022-12-06T14:46:46.415Z,11.77
2022-12-06T14:49:35.268Z,13.20
2022-12-06T14:52:03.084Z,11.53
2022-12-06T14:54:35.742Z,12.67
2022-12-06T14:57:05.051Z,12.13
2022-12-06T15:00:12.707Z,12.27
2022-12-06T15:02:24.689Z,11.20
2022-12-06T15:04:54.371Z,13.17
2022-12-06T15:07:39.098Z,11.53
2022-12-06T15:10:11.093Z,12.47
2022-12-06T15:12:57.249Z,13.80
2022-12-06T15:15:39.061Z,13.67
2022-12-06T15:18:21.545Z,13.00
2022-12-06T15:20:51.190Z,13.10
2022-12-06T15:23:29.076Z,15.90
2022-12-06T15:25:57.497Z,15.20
2022-12-06T15:28:25.425Z,15.37
2022-12-06T15:30:53.933Z,15.07
2022-12-06T15:33:22.785Z,17.13
2022-12-06T15:35:52.668Z,15.97
2022-12-06T15:38:20.933Z,16.23
2022-12-06T15:40:50.768Z,15.00
2022-12-06T15:43:26.977Z,15.73
2022-12-06T15:45:56.277Z,14.33
2022-12-06T15:48:25.075Z,15.37
2022-12-06T15:51:12.283Z,13.83
2022-12-06T15:53:42.281Z,16.53
2022-12-06T15:56:12.969Z,16.43
2022-12-06T15:58:40.928Z,16.77
2022-12-06T16:01:15.634Z,18.00
2022-12-06T16:03:43.594Z,16.83
2022-12-06T16:06:14.915Z,18.87
2022-12-06T16:08:43.065Z,18.57
2022-12-06T16:11:12.549Z,16.30
2022-12-06T16:13:42.317Z,18.30
2022-12-06T16:16:10.148Z,18.50
2022-12-06T16:18:37.910Z,17.50
2022-12-06T16:21:06.296Z,15.63
2022-12-06T16:26:43.983Z,16.47
2022-12-06T16:29:13.411Z,16.17
2022-12-06T16:31:41.474Z,16.83
2022-12-06T16:34:09.891Z,21.17
2022-12-06T16:36:53.977Z,27.13
2022-12-06T16:39:26.246Z,24.80
2022-12-06T16:41:54.439Z,21.93
2022-12-06T16:44:22.616Z,21.70
2022-12-06T16:46:52.176Z,23.17
2022-12-06T16:52:09.542Z,25.53
2022-12-06T16:54:41.250Z,22.47
2022-12-06T16:57:10.194Z,23.57
2022-12-06T16:59:38.995Z,22.30
2022-12-06T17:02:17.595Z,21.70
2022-12-06T17:04:45.351Z,19.93
2022-12-06T17:07:13.373Z,20.67
2022-12-06T17:09:42.655Z,19.13
2022-12-06T17:12:13.272Z,18.67
2022-12-06T17:14:42.754Z,17.00
2022-12-06T17:17:13.166Z,19.20
2022-12-06T17:19:42.755Z,15.77
2022-12-06T17:22:13.595Z,17.53
2022-12-06T17:24:43.738Z,18.70
2022-12-06T17:27:15.238Z,17.33
2022-12-06T17:29:43.648Z,17.57
2022-12-06T17:32:11.928Z,21.33
2022-12-06T17:34:39.793Z,20.90
2022-12-06T17:37:07.787Z,22.87
2022-12-06T17:39:35.529Z,18.63
2022-12-06T17:42:22.659Z,18.60
2022-12-06T17:44:51.078Z,20.50
2022-12-06T17:47:19.889Z,20.80
2022-12-06T17:49:47.975Z,22.40
2022-12-06T17:52:16.398Z,19.53
2022-12-06T17:54:44.565Z,23.17
2022-12-06T17:57:16.313Z,22.07
2022-12-06T17:59:44.071Z,20.13
2022-12-06T18:02:15.566Z,20.13
2022-12-06T18:04:44.418Z,21.57
2022-12-06T18:07:12.484Z,21.07
2022-12-06T18:09:40.496Z,21.40
2022-12-06T18:12:09.179Z,20.37
2022-12-06T18:14:38.910Z,19.87
2022-12-06T18:17:06.655Z,20.03
2022-12-06T18:19:34.888Z,20.43
2022-12-06T18:22:02.903Z,19.03
2022-12-06T18:24:35.359Z,18.17
2022-12-06T18:27:04.769Z,17.40
2022-12-06T18:29:33.251Z,16.97
2022-12-06T18:32:02.556Z,20.53
2022-12-06T18:34:30.924Z,20.97
2022-12-06T18:36:58.878Z,20.43
2022-12-06T18:39:28.068Z,21.83
2022-12-06T18:41:56.833Z,20.47
2022-12-06T18:44:25.978Z,21.37
2022-12-06T18:46:53.647Z,20.87
2022-12-06T18:49:22.973Z,22.90
2022-12-06T18:51:51.489Z,19.93
2022-12-06T18:54:20.115Z,23.43
2022-12-06T18:56:47.909Z,22.67
2022-12-06T18:59:15.643Z,20.50
2022-12-06T19:01:45.757Z,20.17
2022-12-06T19:04:16.750Z,18.17
2022-12-06T19:06:46.157Z,15.57
2022-12-06T19:09:17.425Z,19.13
2022-12-06T19:11:46.271Z,14.27
2022-12-06T19:14:14.938Z,15.77
2022-12-06T19:16:44.479Z,14.77
2022-12-06T19:19:16.756Z,14.97
2022-12-06T19:21:47.503Z,16.23
2022-12-06T19:24:19.081Z,11.40
2022-12-06T19:26:47.003Z,13.60
2022-12-06T19:29:16.615Z,13.50
2022-12-06T19:31:46.208Z,13.20
2022-12-06T19:34:15.746Z,13.13
2022-12-06T19:36:43.868Z,14.87
2022-12-06T19:39:15.160Z,13.60
2022-12-06T19:42:01.161Z,13.43
2022-12-06T19:44:30.289Z,14.87
2022-12-06T19:46:58.436Z,13.33
2022-12-06T19:49:26.981Z,12.97
2022-12-06T19:51:55.194Z,14.40
2022-12-06T19:54:26.162Z,12.87
2022-12-06T19:56:57.046Z,14.40
2022-12-06T19:59:26.058Z,13.90
2022-12-06T20:01:54.779Z,14.37
2022-12-06T20:04:23.926Z,13.60
2022-12-06T20:06:51.912Z,15.30
2022-12-06T20:09:20.542Z,13.90
2022-12-06T20:12:05.628Z,15.13
2022-12-06T20:14:41.909Z,14.07
2022-12-06T20:17:11.153Z,15.50
2022-12-06T20:19:43.262Z,14.03
2022-12-06T20:22:11.033Z,14.13
2022-12-06T20:24:38.885Z,15.90
2022-12-06T20:27:08.193Z,15.90
2022-12-06T20:29:36.171Z,14.47
2022-12-06T20:32:04.359Z,14.73
2022-12-06T20:34:34.503Z,17.03
2022-12-06T20:37:04.910Z,15.30
2022-12-06T20:39:35.875Z,15.53
2022-12-06T20:42:05.632Z,15.70
2022-12-06T20:44:35.859Z,15.03
2022-12-06T20:47:03.774Z,16.50
2022-12-06T20:49:31.622Z,15.30
2022-12-06T20:52:02.291Z,15.53
2022-12-06T20:54:30.410Z,15.57
2022-12-06T20:56:58.623Z,15.23
2022-12-06T20:59:26.525Z,16.80
2022-12-06T21:01:56.478Z,16.33
2022-12-06T21:04:24.267Z,16.40
2022-12-06T21:06:52.584Z,15.57
2022-12-06T21:09:20.632Z,15.47
2022-12-06T21:11:48.538Z,16.33
2022-12-06T21:14:17.805Z,16.43
2022-12-06T21:16:45.510Z,17.03
2022-12-06T21:19:16.843Z,17.40
2022-12-06T21:21:45.644Z,17.53
2022-12-06T21:24:15.260Z,19.30
2022-12-06T21:26:43.085Z,16.97
2022-12-06T21:29:13.623Z,16.90
2022-12-06T21:31:41.501Z,16.60
2022-12-06T21:34:09.645Z,16.67
2022-12-06T21:36:39.938Z,16.17
2022-12-06T21:39:07.799Z,19.90
2022-12-06T21:41:38.469Z,20.30
2022-12-06T21:44:06.912Z,18.63
2022-12-06T21:46:34.971Z,20.37
2022-12-06T21:49:03.024Z,19.40
2022-12-06T21:51:32.057Z,20.47
2022-12-06T21:54:01.659Z,22.23
2022-12-06T21:56:32.897Z,20.33
2022-12-06T21:59:01.523Z,22.43
2022-12-06T22:01:31.395Z,22.00
2022-12-06T22:04:00.888Z,22.03
2022-12-06T22:06:29.927Z,20.83
2022-12-06T22:08:59.971Z,22.60
2022-12-06T22:11:29.900Z,21.63
2022-12-06T22:13:58.983Z,21.50
2022-12-06T22:16:28.083Z,21.57
2022-12-06T22:18:56.305Z,22.37
2022-12-06T22:21:26.033Z,21.93
2022-12-06T22:23:54.187Z,20.23
2022-12-06T22:26:23.304Z,19.97
2022-12-06T22:28:52.484Z,20.43
2022-12-06T22:31:21.101Z,20.37
2022-12-06T22:33:49.553Z,18.60
2022-12-06T22:36:17.721Z,20.53
2022-12-06T22:38:45.565Z,20.47
2022-12-06T22:41:13.978Z,20.57
2022-12-06T22:43:41.711Z,20.33
2022-12-06T22:46:11.957Z,20.90
2022-12-06T22:48:40.007Z,20.27
2022-12-06T22:51:08.767Z,22.13
2022-12-06T22:53:36.521Z,21.33
2022-12-06T22:56:04.389Z,19.53
2022-12-06T22:58:32.956Z,22.70
2022-12-06T23:01:01.225Z,19.20
2022-12-06T23:03:31.298Z,19.07
2022-12-06T23:06:00.712Z,22.33
2022-12-06T23:08:28.825Z,18.17
2022-12-06T23:11:04.510Z,17.03
2022-12-06T23:13:32.358Z,17.40
2022-12-06T23:16:01.066Z,18.63
2022-12-06T23:18:29.508Z,14.20
2022-12-06T23:21:05.992Z,16.50
2022-12-06T23:23:35.708Z,17.80
2022-12-06T23:26:04.060Z,17.57
2022-12-06T23:28:32.288Z,17.10
2022-12-06T23:31:04.030Z,16.90
2022-12-06T23:33:32.688Z,17.67
2022-12-06T23:36:07.458Z,18.33
2022-12-06T23:38:37.749Z,17.37
2022-12-06T23:41:07.326Z,16.87
2022-12-06T23:43:35.310Z,16.80
2022-12-06T23:46:07.456Z,18.43
2022-12-06T23:48:36.220Z,18.70
2022-12-06T23:51:05.958Z,19.57
2022-12-06T23:53:33.856Z,19.70
2022-12-06T23:56:02.483Z,19.17
2022-12-06T23:58:30.591Z,20.07
